Time;durP1;ratioP1;P1;durP2;ratioP2;P2;SDS_P1;SDS_P2;PMS_P1;PMS_P2;Temp;Humidity;BMP_temperature;BMP_pressure;BME280_temperature;BME280_humidity;BME280_pressure;Samples;Min_cycle;Max_cycle;Signal;HPM_P1;HPM_P2
2022/03/09 00:00:34;;;;;;;22.00;6.40;;;;;;;1.50;65.72;100824.31;5069458;28;20044;-75
2022/03/09 00:03:00;;;;;;;13.27;5.78;;;;;;;1.41;65.30;100826.22;5069791;28;20047;-72
2022/03/09 00:05:25;;;;;;;12.85;6.65;;;;;;;1.41;65.81;100827.94;5069043;28;20047;-75
2022/03/09 00:07:50;;;;;;;14.43;5.78;;;;;;;1.41;66.03;100815.88;5068830;28;20033;-74
2022/03/09 00:10:16;;;;;;;16.75;5.82;;;;;;;1.37;65.40;100829.75;5069276;28;20024;-73
2022/03/09 00:12:42;;;;;;;14.77;5.68;;;;;;;1.31;65.58;100835.03;5069482;28;20033;-75
2022/03/09 00:15:08;;;;;;;18.77;6.55;;;;;;;1.24;66.62;100833.44;5064607;28;20571;-75
2022/03/09 00:17:33;;;;;;;16.60;6.38;;;;;;;1.24;65.64;100835.19;5069301;28;20040;-75
2022/03/09 00:19:58;;;;;;;16.65;6.35;;;;;;;1.15;66.29;100837.06;5069171;28;20158;-76
2022/03/09 00:22:24;;;;;;;19.05;6.28;;;;;;;1.10;66.55;100838.88;5069032;28;20040;-71
2022/03/09 00:24:49;;;;;;;21.45;7.05;;;;;;;1.06;66.74;100829.47;5069369;28;20035;-73
2022/03/09 00:27:14;;;;;;;18.52;7.45;;;;;;;1.01;66.68;100828.72;5069239;28;20033;-73
2022/03/09 00:29:39;;;;;;;18.08;7.25;;;;;;;1.00;66.44;100829.59;5069043;28;20089;-74
2022/03/09 00:32:06;;;;;;;14.75;6.75;;;;;;;0.96;66.62;100835.69;5068666;28;20082;-74
2022/03/09 00:34:32;;;;;;;27.50;8.73;;;;;;;0.91;67.31;100833.19;5062559;28;20421;-72
2022/03/09 00:36:57;;;;;;;26.85;7.90;;;;;;;0.90;67.60;100838.41;5069134;28;20103;-73
2022/03/09 00:39:23;;;;;;;29.60;9.25;;;;;;;0.86;67.07;100839.34;5068291;28;20123;-71
2022/03/09 00:41:48;;;;;;;29.20;10.68;;;;;;;0.81;67.66;100834.25;5069012;28;20082;-73
2022/03/09 00:44:13;;;;;;;29.50;10.60;;;;;;;0.77;67.36;100831.75;5068156;28;20063;-73
2022/03/09 00:46:39;;;;;;;28.20;9.27;;;;;;;0.75;67.77;100834.38;5068807;28;20040;-73
2022/03/09 00:49:05;;;;;;;19.67;7.55;;;;;;;0.77;66.94;100824.00;5069349;28;20012;-72
2022/03/09 00:51:30;;;;;;;19.33;7.40;;;;;;;0.80;66.83;100826.53;5069521;28;20456;-72
2022/03/09 00:53:55;;;;;;;18.63;6.43;;;;;;;0.74;66.95;100819.75;5068360;28;20032;-73
2022/03/09 00:56:20;;;;;;;18.17;6.95;;;;;;;0.73;66.70;100826.63;5068769;28;20617;-73
2022/03/09 00:58:47;;;;;;;15.18;7.32;;;;;;;0.80;66.73;100823.97;5068482;28;20032;-73
2022/03/09 01:01:13;;;;;;;15.27;7.40;;;;;;;0.71;67.14;100819.81;5068677;28;20508;-73
2022/03/09 01:03:38;;;;;;;14.85;6.45;;;;;;;0.60;67.08;100829.47;5068662;28;20012;-73
2022/03/09 01:06:04;;;;;;;17.33;7.78;;;;;;;0.51;67.56;100829.63;5068072;28;20063;-73
2022/03/09 01:08:29;;;;;;;13.23;6.28;;;;;;;0.47;67.63;100815.94;5067886;28;20036;-73
2022/03/09 01:10:55;;;;;;;15.27;6.57;;;;;;;0.38;68.31;100814.34;5067928;28;20486;-74
2022/03/09 01:13:21;;;;;;;19.50;7.65;;;;;;;0.42;68.80;100817.75;5068104;28;20256;-73
2022/03/09 01:15:47;;;;;;;17.08;6.85;;;;;;;0.34;69.13;100807.56;5064347;28;20047;-73
2022/03/09 01:18:12;;;;;;;16.88;7.20;;;;;;;0.26;69.16;100801.69;5068844;28;20040;-72
2022/03/09 01:20:37;;;;;;;20.33;7.85;;;;;;;0.22;70.15;100808.59;5068264;28;20136;-74
2022/03/09 01:23:03;;;;;;;17.08;7.35;;;;;;;0.15;71.11;100807.00;5068441;28;20465;-74
2022/03/09 01:25:28;;;;;;;18.92;7.18;;;;;;;0.11;70.86;100813.09;5072741;28;20086;-73
2022/03/09 01:27:53;;;;;;;16.30;7.53;;;;;;;0.09;71.89;100801.94;5073288;28;20046;-73
2022/03/09 01:30:19;;;;;;;18.30;7.35;;;;;;;0.05;72.14;100804.59;5072063;28;20074;-73
2022/03/09 01:32:44;;;;;;;16.83;7.28;;;;;;;0.02;72.36;100802.06;5072079;28;20040;-73
2022/03/09 01:35:09;;;;;;;20.38;7.63;;;;;;;-0.04;73.15;100795.25;5068929;28;20140;-73
2022/03/09 01:37:35;;;;;;;32.90;8.25;;;;;;;-0.07;73.42;100790.16;5072034;28;20048;-73
2022/03/09 01:40:01;;;;;;;20.63;7.85;;;;;;;-0.13;73.57;100796.25;5072896;28;20435;-72
2022/03/09 01:42:26;;;;;;;15.77;6.55;;;;;;;-0.15;74.65;100791.97;5072520;28;20041;-72
2022/03/09 01:44:52;;;;;;;19.17;7.10;;;;;;;-0.16;75.19;100796.28;5071886;28;20502;-72
2022/03/09 01:47:17;;;;;;;18.00;7.38;;;;;;;-0.19;75.36;100786.03;5072089;28;20036;-74
2022/03/09 01:49:43;;;;;;;17.75;7.72;;;;;;;-0.21;74.85;100782.63;5072064;28;20111;-73
2022/03/09 01:52:11;;;;;;;19.70;7.97;;;;;;;-0.23;75.55;100791.25;5072409;28;20546;-73
2022/03/09 01:54:36;;;;;;;15.80;7.13;;;;;;;-0.26;76.15;100785.28;5071886;28;20036;-73
2022/03/09 01:57:02;;;;;;;20.25;7.95;;;;;;;-0.25;76.25;100781.81;5072223;28;20043;-73
2022/03/09 01:59:27;;;;;;;16.15;8.10;;;;;;;-0.17;75.92;100783.44;5064568;28;20036;-73
2022/03/09 02:01:53;;;;;;;15.40;7.32;;;;;;;-0.17;76.09;100788.59;5072305;28;20525;-73
2022/03/09 02:04:19;;;;;;;14.73;7.07;;;;;;;-0.18;76.11;100786.91;5071221;28;20024;-74
2022/03/09 02:06:44;;;;;;;17.35;7.28;;;;;;;-0.13;75.85;100795.41;5071571;28;20410;-73
2022/03/09 02:11:56;;;;;;;14.23;6.88;;;;;;;-0.19;74.28;100800.63;5072058;28;20066;-72
2022/03/09 02:14:33;;;;;;;16.02;7.32;;;;;;;-0.28;75.79;100794.75;5071164;28;20040;-73
2022/03/09 02:17:02;;;;;;;18.38;7.22;;;;;;;-0.30;75.52;100805.94;5069654;28;20035;-73
2022/03/09 02:19:28;;;;;;;20.15;7.45;;;;;;;-0.31;75.48;100812.81;5071843;28;20032;-74
2022/03/09 02:22:27;;;;;;;14.07;6.25;;;;;;;-0.37;75.19;100814.63;5072551;28;20021;-74
2022/03/09 02:24:53;;;;;;;19.35;7.88;;;;;;;-0.42;75.93;100812.13;5070042;28;20117;-73
2022/03/09 02:27:22;;;;;;;17.65;7.47;;;;;;;-0.39;76.36;100814.66;5053816;28;20493;-73
2022/03/09 02:29:52;;;;;;;21.98;7.72;;;;;;;-0.31;75.62;100814.53;5074693;28;20036;-74
2022/03/09 02:32:18;;;;;;;19.33;7.95;;;;;;;-0.34;75.03;100814.59;5085544;28;20051;-74
2022/03/09 02:34:43;;;;;;;14.75;7.57;;;;;;;-0.41;75.22;100826.69;5067926;28;20032;-74
2022/03/09 02:37:09;;;;;;;20.73;8.50;;;;;;;-0.47;76.33;100818.22;5086369;28;20078;-75
2022/03/09 02:39:35;;;;;;;16.35;7.70;;;;;;;-0.50;76.20;100817.38;5073041;28;20131;-75
2022/03/09 02:42:01;;;;;;;18.45;8.27;;;;;;;-0.51;76.24;100822.56;5072366;28;20096;-73
2022/03/09 02:44:26;;;;;;;19.48;8.40;;;;;;;-0.52;76.34;100816.56;5071649;28;20174;-73
2022/03/09 02:46:51;;;;;;;17.60;8.27;;;;;;;-0.50;76.45;100819.09;5072186;28;20040;-74
2022/03/09 02:49:17;;;;;;;24.45;8.52;;;;;;;-0.49;76.69;100821.63;5071514;28;20028;-73
2022/03/09 02:51:42;;;;;;;24.40;8.05;;;;;;;-0.44;76.91;100811.31;5072606;28;20025;-74
2022/03/09 02:54:07;;;;;;;21.48;7.00;;;;;;;-0.40;77.44;100815.53;5071058;28;20082;-74
2022/03/09 02:56:33;;;;;;;15.10;7.55;;;;;;;-0.37;76.49;100817.19;5071463;28;20033;-73
2022/03/09 02:58:58;;;;;;;13.25;7.63;;;;;;;-0.37;76.24;100815.50;5071028;28;20032;-73
2022/03/09 03:01:24;;;;;;;21.27;6.82;;;;;;;-0.42;76.50;100817.25;5053442;28;20055;-73
2022/03/09 03:03:49;;;;;;;17.50;7.53;;;;;;;-0.51;76.38;100827.69;5071312;28;20047;-73
2022/03/09 03:06:14;;;;;;;22.65;8.32;;;;;;;-0.53;77.04;100821.72;5070706;28;20037;-73
2022/03/09 03:08:40;;;;;;;22.90;8.85;;;;;;;-0.55;76.40;100824.31;5069945;28;20059;-73
2022/03/09 03:11:10;;;;;;;17.25;7.85;;;;;;;-0.61;76.81;100824.38;5070972;28;20067;-74
2022/03/09 03:13:41;;;;;;;17.55;8.23;;;;;;;-0.65;77.11;100822.72;5069808;28;20033;-74
2022/03/09 03:16:07;;;;;;;17.75;7.78;;;;;;;-0.66;77.98;100825.31;5041152;28;20035;-74
2022/03/09 03:18:33;;;;;;;19.15;7.80;;;;;;;-0.62;77.63;100825.25;5070787;28;20379;-73
2022/03/09 03:20:59;;;;;;;16.05;7.70;;;;;;;-0.53;77.38;100826.84;5063724;28;20028;-72
2022/03/09 03:23:26;;;;;;;16.90;8.02;;;;;;;-0.57;76.99;100822.63;5069795;28;20029;-73
2022/03/09 03:25:53;;;;;;;17.90;7.90;;;;;;;-0.64;77.34;100814.09;5070629;28;20158;-74
2022/03/09 03:28:19;;;;;;;30.92;12.60;;;;;;;-0.67;77.83;100828.75;5069682;28;20577;-73
2022/03/09 03:30:45;;;;;;;19.52;9.70;;;;;;;-0.71;77.97;100821.94;5070422;28;20024;-74
2022/03/09 03:33:11;;;;;;;28.98;9.45;;;;;;;-0.73;77.58;100825.38;5069514;28;20064;-76
2022/03/09 03:35:36;;;;;;;22.27;8.63;;;;;;;-0.78;77.50;100816.00;5065680;28;20543;-72
2022/03/09 03:38:02;;;;;;;20.15;8.32;;;;;;;-0.84;78.00;100814.38;5069474;28;20612;-72
2022/03/09 03:40:27;;;;;;;22.85;9.00;;;;;;;-0.92;78.30;100816.19;5070450;28;20397;-72
2022/03/09 03:42:52;;;;;;;17.08;7.70;;;;;;;-0.95;78.20;100820.50;5070239;28;20020;-76
2022/03/09 03:45:17;;;;;;;19.23;8.18;;;;;;;-1.01;78.13;100817.13;5069698;28;20029;-75
2022/03/09 03:47:43;;;;;;;24.73;8.70;;;;;;;-1.03;78.64;100818.03;5069351;28;20106;-74
2022/03/09 03:50:09;;;;;;;18.42;7.97;;;;;;;-0.99;78.73;100822.25;5066533;28;20040;-71
2022/03/09 03:52:34;;;;;;;18.98;7.95;;;;;;;-0.93;78.44;100829.91;5069618;28;20631;-73
2022/03/09 03:54:59;;;;;;;20.58;9.50;;;;;;;-0.99;78.26;100820.53;5051812;28;20600;-73
2022/03/09 03:57:25;;;;;;;19.75;7.82;;;;;;;-1.03;78.50;100821.44;5069732;28;20037;-74
2022/03/09 03:59:50;;;;;;;16.63;7.55;;;;;;;-1.08;78.71;100817.19;5069696;28;20032;-72
2022/03/09 04:02:15;;;;;;;18.70;8.05;;;;;;;-1.13;79.14;100814.69;5069320;28;20485;-74
2022/03/09 04:04:40;;;;;;;26.65;8.52;;;;;;;-1.15;79.13;100819.00;5068413;28;20035;-74
2022/03/09 04:07:06;;;;;;;22.45;9.20;;;;;;;-1.21;79.69;100816.50;5069063;28;20023;-73
2022/03/09 04:09:31;;;;;;;16.73;7.07;;;;;;;-1.25;79.69;100812.25;5069032;28;20033;-73
2022/03/09 04:11:57;;;;;;;17.58;8.73;;;;;;;-1.26;79.87;100810.50;5069381;28;20041;-75
2022/03/09 04:14:22;;;;;;;17.67;8.00;;;;;;;-1.26;79.49;100820.81;5051047;28;20037;-75
2022/03/09 04:16:49;;;;;;;17.88;8.50;;;;;;;-1.31;80.25;100820.84;5069108;28;20395;-74
2022/03/09 04:19:14;;;;;;;20.00;9.07;;;;;;;-1.33;80.14;100822.63;5050695;28;20032;-75
2022/03/09 04:21:39;;;;;;;16.88;7.82;;;;;;;-1.33;80.17;100824.34;5069434;28;20046;-72
2022/03/09 04:24:05;;;;;;;24.55;8.50;;;;;;;-1.28;80.72;100827.69;5068665;28;20043;-72
2022/03/09 04:26:31;;;;;;;15.07;8.23;;;;;;;-1.23;80.90;100834.50;5051367;28;20087;-72
2022/03/09 04:28:57;;;;;;;19.13;7.85;;;;;;;-1.16;80.41;100829.28;5069245;28;20036;-74
2022/03/09 04:31:22;;;;;;;23.83;8.80;;;;;;;-1.18;80.07;100834.47;5067053;28;20516;-74
2022/03/09 04:33:47;;;;;;;28.52;9.15;;;;;;;-1.20;80.41;100835.34;5069428;28;20028;-72
2022/03/09 04:36:13;;;;;;;19.10;8.90;;;;;;;-1.17;79.97;100846.47;5068935;28;20054;-73
2022/03/09 04:38:38;;;;;;;23.48;8.93;;;;;;;-1.12;80.21;100843.84;5069703;28;20036;-73
2022/03/09 04:41:04;;;;;;;18.77;9.10;;;;;;;-1.09;80.47;100851.53;5068894;28;20039;-72
2022/03/09 04:43:29;;;;;;;23.25;9.60;;;;;;;-1.05;80.94;100848.06;5050443;28;20046;-72
2022/03/09 04:45:55;;;;;;;21.00;8.88;;;;;;;-1.05;80.76;100851.47;5069608;28;20390;-72
2022/03/09 04:48:20;;;;;;;20.15;8.90;;;;;;;-1.05;81.49;100850.63;5068738;28;20055;-72
2022/03/09 04:50:45;;;;;;;20.30;9.20;;;;;;;-1.10;81.61;100848.09;5068872;28;20059;-73
2022/03/09 04:53:11;;;;;;;22.33;9.45;;;;;;;-1.11;81.39;100848.09;5068416;28;20032;-72
2022/03/09 04:55:36;;;;;;;27.58;10.02;;;;;;;-1.18;81.56;100854.22;5068918;28;20397;-71
2022/03/09 04:58:01;;;;;;;16.90;8.43;;;;;;;-1.23;80.97;100852.50;5069433;28;20021;-73
2022/03/09 05:00:27;;;;;;;19.77;8.27;;;;;;;-1.27;80.86;100850.81;5068420;28;20028;-74
2022/03/09 05:02:52;;;;;;;17.95;8.52;;;;;;;-1.32;81.47;100855.19;5069688;28;20029;-73
2022/03/09 05:05:17;;;;;;;19.63;9.63;;;;;;;-1.30;81.58;100862.88;5049799;28;20032;-73
2022/03/09 05:07:43;;;;;;;20.77;8.63;;;;;;;-1.32;81.82;100860.31;5068156;28;20636;-73
2022/03/09 05:10:09;;;;;;;18.63;10.23;;;;;;;-1.33;81.79;100862.91;5068605;28;20032;-73
2022/03/09 05:12:35;;;;;;;26.75;8.88;;;;;;;-1.33;81.98;100861.19;5050728;28;20056;-74
2022/03/09 05:15:00;;;;;;;20.40;9.75;;;;;;;-1.34;81.03;100858.63;5047847;28;20124;-73
2022/03/09 05:17:26;;;;;;;19.05;9.07;;;;;;;-1.46;81.52;100857.84;5030909;28;20041;-73
2022/03/09 05:19:51;;;;;;;17.92;9.27;;;;;;;-1.54;81.57;100856.22;5064432;28;20028;-73
2022/03/09 05:22:16;;;;;;;18.83;9.27;;;;;;;-1.56;82.08;100855.38;5042532;28;20071;-73
2022/03/09 05:24:42;;;;;;;22.83;9.07;;;;;;;-1.55;82.13;100849.38;5068422;28;20033;-72
2022/03/09 05:27:07;;;;;;;24.35;8.70;;;;;;;-1.60;81.93;100851.97;5068517;28;20430;-72
2022/03/09 05:29:32;;;;;;;21.35;9.23;;;;;;;-1.63;82.17;100851.16;5068021;28;20037;-73
2022/03/09 05:31:58;;;;;;;20.38;9.98;;;;;;;-1.66;82.82;100857.19;5068403;28;20116;-72
2022/03/09 05:34:23;;;;;;;26.67;11.20;;;;;;;-1.67;83.00;100852.88;5067680;28;20032;-72
2022/03/09 05:36:48;;;;;;;28.55;10.45;;;;;;;-1.64;82.55;100852.00;5068657;28;20055;-74
2022/03/09 05:39:14;;;;;;;30.63;10.27;;;;;;;-1.59;82.89;100858.00;5068192;28;20094;-75
2022/03/09 05:41:39;;;;;;;25.00;10.00;;;;;;;-1.59;82.62;100855.44;5068823;28;20036;-73
2022/03/09 05:44:05;;;;;;;28.98;9.65;;;;;;;-1.60;82.50;100861.41;5068306;28;20501;-74
2022/03/09 05:46:30;;;;;;;30.17;10.98;;;;;;;-1.60;82.64;100859.69;5048149;28;20025;-74
2022/03/09 05:48:56;;;;;;;29.02;10.05;;;;;;;-1.58;82.27;100859.69;5068790;28;20027;-75
2022/03/09 05:51:21;;;;;;;23.40;10.40;;;;;;;-1.60;81.78;100863.97;5068377;28;20040;-74
2022/03/09 05:53:47;;;;;;;33.92;11.63;;;;;;;-1.63;81.88;100864.88;5067744;28;20032;-71
2022/03/09 05:56:12;;;;;;;25.00;10.35;;;;;;;-1.63;82.29;100859.75;5068070;28;20102;-74
2022/03/09 05:58:37;;;;;;;36.50;12.05;;;;;;;-1.59;82.21;100866.56;5067483;28;20032;-73
2022/03/09 06:01:03;;;;;;;33.63;10.05;;;;;;;-1.53;82.04;100871.63;5067858;28;20100;-74
2022/03/09 06:03:28;;;;;;;25.92;10.75;;;;;;;-1.10;87.06;100889.28;5048816;28;20040;-73
2022/03/09 06:05:53;;;;;;;30.92;11.15;;;;;;;-0.26;83.16;100885.78;5063477;28;20041;-73
2022/03/09 06:08:19;;;;;;;32.70;11.40;;;;;;;-0.30;78.46;100891.84;5066347;28;20040;-74
2022/03/09 06:10:44;;;;;;;29.20;11.13;;;;;;;-0.35;77.50;100892.75;5051525;28;20037;-75
2022/03/09 06:13:09;;;;;;;34.22;12.07;;;;;;;-0.54;77.53;100892.13;5070738;28;20039;-72
2022/03/09 06:15:35;;;;;;;26.15;11.55;;;;;;;-0.69;78.33;100895.72;5080186;28;20058;-75
2022/03/09 06:18:00;;;;;;;33.97;12.32;;;;;;;-0.79;79.58;100892.38;5083134;28;20115;-74
2022/03/09 06:20:26;;;;;;;25.55;12.02;;;;;;;-0.86;80.59;100888.16;5088170;28;20258;-73
2022/03/09 06:22:55;;;;;;;33.42;11.75;;;;;;;-0.85;82.19;100899.34;5076864;28;20025;-73
2022/03/09 06:25:20;;;;;;;23.90;10.57;;;;;;;-0.90;82.20;100895.94;5074229;28;20035;-72
2022/03/09 06:27:48;;;;;;;30.65;12.32;;;;;;;-0.94;82.66;100900.28;5054949;28;20028;-73
2022/03/09 06:30:15;;;;;;;27.17;10.15;;;;;;;-0.89;82.71;100898.53;5072854;28;20033;-73
2022/03/09 06:32:41;;;;;;;22.70;10.23;;;;;;;-0.82;82.65;100899.28;5028327;28;20037;-72
2022/03/09 06:35:07;;;;;;;22.30;11.27;;;;;;;-0.81;82.20;100904.44;5065812;28;20028;-74
2022/03/09 06:37:33;;;;;;;25.05;9.95;;;;;;;-0.73;81.21;100901.78;5073226;28;20036;-71
2022/03/09 06:39:59;;;;;;;24.38;10.60;;;;;;;-0.67;80.13;100906.00;5073324;28;20137;-75
2022/03/09 06:42:25;;;;;;;28.40;10.63;;;;;;;-0.58;79.34;100898.19;5073066;28;20032;-72
2022/03/09 06:44:50;;;;;;;22.90;10.88;;;;;;;-0.52;78.97;100904.13;5071987;28;20032;-74
2022/03/09 06:47:16;;;;;;;24.60;10.27;;;;;;;-0.47;78.57;100911.78;5072220;28;20035;-73
2022/03/09 06:49:43;;;;;;;24.55;10.23;;;;;;;-0.42;78.43;100919.47;5072070;28;20025;-72
2022/03/09 06:52:09;;;;;;;30.77;11.30;;;;;;;-0.42;78.48;100915.16;5072637;28;20052;-73
2022/03/09 06:54:34;;;;;;;29.65;10.98;;;;;;;-0.34;78.19;100917.63;5069687;28;20064;-73
2022/03/09 06:57:00;;;;;;;33.15;11.65;;;;;;;-0.35;77.99;100914.22;5070619;28;20137;-73
2022/03/09 06:59:26;;;;;;;27.23;11.93;;;;;;;-0.31;77.85;100915.88;5070472;28;20052;-71
2022/03/09 07:01:51;;;;;;;27.60;10.98;;;;;;;-0.26;77.85;100913.25;5071014;28;20457;-72
2022/03/09 07:04:17;;;;;;;22.75;11.27;;;;;;;-0.18;77.81;100916.59;5070742;28;20040;-73
2022/03/09 07:06:42;;;;;;;25.35;12.07;;;;;;;-0.06;76.85;100920.75;5071498;28;20047;-70
2022/03/09 07:09:07;;;;;;;24.83;10.57;;;;;;;0.02;76.33;100925.78;5046530;28;20116;-72
2022/03/09 07:11:33;;;;;;;35.45;11.25;;;;;;;0.12;75.68;100922.22;5071127;28;20037;-74
2022/03/09 07:13:58;;;;;;;21.08;10.35;;;;;;;0.16;74.84;100929.03;5051248;28;20414;-72
2022/03/09 07:16:23;;;;;;;26.73;10.88;;;;;;;0.19;74.91;100919.53;5065930;28;20051;-72
2022/03/09 07:18:49;;;;;;;28.85;12.50;;;;;;;0.22;75.41;100932.38;5070675;28;20040;-73
2022/03/09 07:21:14;;;;;;;33.33;12.93;;;;;;;0.28;75.09;100928.00;5069382;28;20046;-73
2022/03/09 07:23:40;;;;;;;26.92;11.98;;;;;;;0.37;74.90;100930.44;5070134;28;20033;-72
2022/03/09 07:26:06;;;;;;;24.63;11.30;;;;;;;0.45;74.53;100928.63;5071012;28;20379;-71
2022/03/09 07:28:31;;;;;;;33.13;12.00;;;;;;;0.51;74.22;100933.66;5070858;28;20043;-68
2022/03/09 07:30:57;;;;;;;25.80;10.85;;;;;;;0.58;74.20;100940.44;5070848;28;20036;-73
2022/03/09 07:33:22;;;;;;;27.23;11.70;;;;;;;0.64;73.77;100940.38;5070326;28;20510;-74
2022/03/09 07:35:48;;;;;;;23.30;11.15;;;;;;;0.72;73.23;100938.50;5068127;28;20043;-73
2022/03/09 07:38:14;;;;;;;30.52;10.75;;;;;;;0.79;73.44;100946.16;5069381;28;20170;-73
2022/03/09 07:40:40;;;;;;;24.75;10.60;;;;;;;0.89;73.24;100937.38;5069941;28;20052;-72
2022/03/09 07:43:05;;;;;;;24.95;10.02;;;;;;;0.95;73.09;100943.28;5069685;28;20074;-71
2022/03/09 07:45:30;;;;;;;29.05;11.65;;;;;;;1.02;73.25;100945.78;5068778;28;20036;-71
2022/03/09 07:47:56;;;;;;;28.27;10.48;;;;;;;1.12;73.02;100943.00;5067658;28;20138;-73
2022/03/09 07:50:22;;;;;;;28.13;10.50;;;;;;;1.19;72.46;100943.75;5069401;28;20040;-72
2022/03/09 07:52:47;;;;;;;23.40;10.07;;;;;;;1.26;72.85;100942.78;5068933;28;20036;-72
2022/03/09 07:55:14;;;;;;;25.38;10.63;;;;;;;1.33;72.65;100935.75;5070139;28;20028;-72
2022/03/09 07:57:39;;;;;;;27.65;11.18;;;;;;;1.44;72.73;100938.97;5069852;28;20078;-72
2022/03/09 08:00:06;;;;;;;21.05;9.63;;;;;;;1.53;72.17;100945.72;5069617;28;20041;-73
2022/03/09 08:02:31;;;;;;;28.75;10.60;;;;;;;1.59;71.25;100945.59;5068823;28;20064;-73
2022/03/09 08:04:57;;;;;;;21.75;9.63;;;;;;;1.69;70.72;100947.13;5066928;28;20114;-72
2022/03/09 08:07:22;;;;;;;23.10;10.45;;;;;;;1.75;69.56;100949.59;5066224;28;20024;-73
2022/03/09 08:09:47;;;;;;;20.83;9.40;;;;;;;1.84;69.37;100951.13;5066455;28;20497;-73
2022/03/09 08:12:13;;;;;;;27.10;10.07;;;;;;;1.87;68.95;100944.16;5068482;28;20052;-73
2022/03/09 08:14:38;;;;;;;25.88;10.30;;;;;;;1.97;68.66;100947.41;5068120;28;20040;-72
2022/03/09 08:19:31;;;;;;;23.83;10.15;;;;;;;2.10;68.49;100945.41;5046230;28;20617;-73
2022/03/09 08:21:56;;;;;;;21.13;10.30;;;;;;;2.17;68.28;100955.59;5048395;28;20017;-73
2022/03/09 08:24:22;;;;;;;23.73;10.13;;;;;;;2.25;68.30;100952.84;5047776;28;20163;-73
2022/03/09 08:26:47;;;;;;;20.13;10.07;;;;;;;2.34;68.21;100949.22;5045853;28;20441;-70
2022/03/09 08:29:12;;;;;;;26.13;9.82;;;;;;;2.44;68.07;100953.28;5047565;28;20483;-71
2022/03/09 08:31:38;;;;;;;28.25;11.77;;;;;;;2.55;67.85;100947.84;5045916;28;20087;-75
2022/03/09 08:34:03;;;;;;;25.63;12.85;;;;;;;2.65;67.60;100949.34;5041094;28;20158;-73
2022/03/09 08:36:28;;;;;;;28.67;12.82;;;;;;;2.75;67.18;100950.00;5046085;28;20469;-71
2022/03/09 08:38:55;;;;;;;25.70;10.85;;;;;;;2.83;66.04;100948.06;5046373;28;20048;-73
2022/03/09 08:41:24;;;;;;;22.80;10.77;;;;;;;2.90;66.01;100950.47;5037808;28;20124;-74
2022/03/09 08:43:49;;;;;;;;;;;;;;;2.97;66.50;100945.16;5040983;28;20029;-70
2022/03/09 08:46:15;;;;;;;32.63;12.10;;;;;;;3.07;65.95;100954.38;5045312;28;19919;-72
2022/03/09 08:48:40;;;;;;;28.88;11.10;;;;;;;3.15;66.00;100948.13;5047993;28;20025;-72
2022/03/09 08:51:07;;;;;;;35.35;11.57;;;;;;;3.24;65.05;100949.59;5047270;28;20051;-73
2022/03/09 08:53:32;;;;;;;36.40;11.75;;;;;;;3.36;64.58;100945.84;5038430;28;20503;-71
2022/03/09 08:55:57;;;;;;;23.45;10.40;;;;;;;3.48;63.71;100948.09;5040393;28;20076;-73
2022/03/09 08:58:23;;;;;;;34.65;11.50;;;;;;;3.55;63.83;100944.44;5044862;28;20048;-76
2022/03/09 09:00:48;;;;;;;23.63;9.90;;;;;;;3.69;63.18;100953.59;5046918;28;20474;-69
2022/03/09 09:03:13;;;;;;;21.40;11.02;;;;;;;3.77;63.72;100954.22;5044175;28;20183;-71
2022/03/09 09:05:39;;;;;;;26.02;9.43;;;;;;;3.86;63.22;100954.84;5044443;28;20029;-71
2022/03/09 09:08:05;;;;;;;20.90;8.70;;;;;;;3.93;61.70;100955.50;5032847;28;20078;-70
2022/03/09 09:10:31;;;;;;;21.10;9.27;;;;;;;4.02;61.86;100956.97;5045936;28;20031;-72
2022/03/09 09:12:57;;;;;;;31.88;8.90;;;;;;;4.08;61.19;100954.22;5047188;28;20028;-72
2022/03/09 09:15:24;;;;;;;20.13;8.50;;;;;;;4.15;60.74;100949.69;5040654;28;20136;-76
2022/03/09 09:17:56;;;;;;;16.13;7.80;;;;;;;4.22;60.46;100946.00;5042409;28;20040;-71
2022/03/09 09:20:25;;;;;;;15.85;7.93;;;;;;;4.28;60.08;100951.88;5046936;28;20059;-73
2022/03/09 09:22:51;;;;;;;21.48;8.60;;;;;;;4.39;59.48;100953.28;5046243;28;20036;-73
2022/03/09 09:25:17;;;;;;;25.95;9.20;;;;;;;4.48;57.83;100953.84;5046060;28;20116;-71
2022/03/09 09:27:42;;;;;;;16.90;7.90;;;;;;;4.57;55.25;100950.13;5046834;28;20048;-72
2022/03/09 09:30:08;;;;;;;22.80;9.13;;;;;;;4.64;55.63;100951.63;5046607;28;20530;-72
2022/03/09 09:32:33;;;;;;;17.92;9.07;;;;;;;4.70;56.27;100954.00;5045725;28;20418;-74
2022/03/09 09:34:59;;;;;;;20.55;8.35;;;;;;;4.80;56.64;100947.63;5046039;28;20052;-70
2022/03/09 09:37:24;;;;;;;23.13;8.30;;;;;;;4.89;56.39;100951.66;5046060;28;20083;-73
2022/03/09 09:39:49;;;;;;;19.63;8.15;;;;;;;4.98;56.55;100946.19;5043871;28;20112;-68
2022/03/09 09:42:15;;;;;;;25.27;9.27;;;;;;;5.09;55.68;100941.47;5035719;28;20586;-74
2022/03/09 09:44:42;;;;;;;24.25;9.07;;;;;;;5.22;54.15;100943.66;5046767;28;20429;-74
2022/03/09 09:47:08;;;;;;;20.40;8.85;;;;;;;5.32;53.78;100955.44;5039163;28;20035;-72
2022/03/09 09:49:37;;;;;;;17.13;8.05;;;;;;;5.44;52.57;100947.22;5038150;28;20025;-73
2022/03/09 09:52:04;;;;;;;27.95;8.05;;;;;;;5.55;51.84;100949.44;5038341;28;20053;-72
2022/03/09 09:54:29;;;;;;;17.73;7.90;;;;;;;5.65;51.67;100944.75;5045037;28;20041;-68
2022/03/09 09:56:54;;;;;;;13.88;6.43;;;;;;;5.66;50.20;100941.25;5046956;28;20060;-73
2022/03/09 09:59:20;;;;;;;15.85;7.05;;;;;;;5.70;49.61;100948.03;5046474;28;20044;-73
2022/03/09 10:01:45;;;;;;;18.38;7.38;;;;;;;5.74;50.03;100945.25;5049277;28;20060;-70
2022/03/09 10:04:11;;;;;;;27.02;7.70;;;;;;;5.83;50.78;100944.09;5035689;28;20043;-74
2022/03/09 10:06:37;;;;;;;17.05;7.85;;;;;;;5.90;50.86;100940.38;5043358;28;20052;-72
2022/03/09 10:09:11;;;;;;;22.67;7.82;;;;;;;5.97;50.90;100941.00;5038439;28;20815;-73
2022/03/09 10:11:51;;;;;;;31.08;8.80;;;;;;;6.05;49.92;100945.03;5044788;28;20947;-73
2022/03/09 10:14:39;;;;;;;17.85;7.32;;;;;;;6.13;51.02;100934.31;5045716;28;20041;-74
2022/03/09 10:17:07;;;;;;;22.33;8.43;;;;;;;6.20;51.09;100933.19;5037594;28;20124;-71
2022/03/09 10:19:35;;;;;;;24.98;7.95;;;;;;;6.27;51.55;100937.25;5043023;28;20116;-73
2022/03/09 10:22:21;;;;;;;16.67;7.68;;;;;;;6.38;50.49;100935.97;5048355;28;20103;-72
2022/03/09 10:24:46;;;;;;;18.55;7.88;;;;;;;6.44;50.30;100935.72;5046551;28;20118;-73
2022/03/09 10:27:11;;;;;;;19.75;7.47;;;;;;;6.50;48.84;100930.28;5047426;28;20139;-74
2022/03/09 10:29:37;;;;;;;16.17;7.88;;;;;;;6.58;49.07;100936.03;5045437;28;20505;-72
2022/03/09 10:32:02;;;;;;;26.48;8.95;;;;;;;6.67;49.61;100940.88;5047949;28;20032;-71
2022/03/09 10:34:29;;;;;;;17.25;8.20;;;;;;;6.74;49.02;100931.88;5045366;28;20147;-72
2022/03/09 10:36:57;;;;;;;19.65;8.32;;;;;;;6.84;48.85;100932.38;5049177;28;20028;-75
2022/03/09 10:39:26;;;;;;;23.95;7.65;;;;;;;6.97;49.33;100935.31;5047211;28;20037;-75
2022/03/09 10:41:52;;;;;;;13.63;6.85;;;;;;;7.07;48.05;100938.41;5041498;28;20167;-74
2022/03/09 10:44:17;;;;;;;21.17;8.25;;;;;;;7.12;47.61;100933.81;5046544;28;20817;-74
2022/03/09 10:46:48;;;;;;;15.98;7.57;;;;;;;7.18;47.70;100933.56;5048953;28;20037;-73
2022/03/09 10:49:16;;;;;;;16.00;7.35;;;;;;;7.28;47.03;100930.50;5046404;28;20109;-73
2022/03/09 10:51:43;;;;;;;27.47;8.67;;;;;;;7.41;46.91;100925.59;5043723;28;20498;-73
2022/03/09 10:54:19;;;;;;;24.42;8.73;;;;;;;7.52;46.99;100925.97;5038481;28;20266;-75
2022/03/09 10:56:46;;;;;;;13.55;7.20;;;;;;;7.64;46.45;100929.81;5042264;28;20029;-73
2022/03/09 10:59:20;;;;;;;21.30;8.25;;;;;;;7.71;45.94;100928.66;5046222;28;20074;-74
2022/03/09 11:02:09;;;;;;;17.02;8.52;;;;;;;7.71;46.06;100920.81;5050040;28;20529;-75
2022/03/09 11:04:36;;;;;;;29.45;9.98;;;;;;;7.79;46.15;100919.59;5042335;28;20048;-75
2022/03/09 11:07:02;;;;;;;18.02;7.57;;;;;;;7.88;45.49;100927.88;5050310;28;20053;-73
2022/03/09 11:09:29;;;;;;;17.30;7.75;;;;;;;7.95;45.19;100931.88;5049510;28;20064;-69
2022/03/09 11:11:55;;;;;;;20.15;7.88;;;;;;;8.06;44.77;100931.41;5048701;28;20029;-70
2022/03/09 11:14:21;;;;;;;19.67;7.60;;;;;;;8.12;43.84;100925.03;5042423;28;20549;-72
2022/03/09 11:16:48;;;;;;;14.20;6.70;;;;;;;8.16;44.06;100924.84;5046085;28;20438;-77
2022/03/09 11:19:14;;;;;;;17.20;7.63;;;;;;;8.17;43.39;100921.31;5037400;28;20110;-72